Latest Weather Observations for Mackay

IDQ60801

Issued at 4:32 pm EST Thursday 11 February 2016 (issued every 30 minutes, with the page automatically refreshed every 10 minutes)

About weather observations | Map of weather stations | Latest weather observations for QLD | Other Formats
Station Details ID: 033119 Name: MACKAY M.O Lat: -21.12 Lon: 149.22 Height: 30.26 m
Data from the previous 72 hours. | See also: Recent months at Mackay
Date/Time
EST
Temp
°C
App
Temp
°C
Dew
Point
Rel
Hum
%
Delta-T
°C
Wind Press
QNH
hPa
Press
MSL
hPa
Rain
since 9 am
mm
Dir
 
Spd
km/h
Gust
km/h
Spd
kts
Gust
kts
11/04:00pm 28.2 29.8 22.1 69 4.1 ESE 17 30 9 16 1007.5 1007.3 0.2
11/03:30pm 28.0 29.6 22.2 70 3.9 SE 17 26 9 14 1007.5 1007.3 0.2
11/03:00pm 28.9 30.2 22.4 68 4.4 SE 19 30 10 16 1007.6 1007.4 0.2
11/02:30pm 27.9 28.9 21.8 69 4.1 SE 19 32 10 17 1007.8 1007.6 0.2
11/02:00pm 29.1 30.4 22.6 68 4.4 SSE 20 30 11 16 1008.2 1008.0 0.2
11/01:30pm 28.7 29.6 22.0 67 4.5 SSE 20 28 11 15 1008.5 1008.3 0.2
11/01:00pm 28.8 29.9 22.3 68 4.4 SSE 20 30 11 16 1008.8 1008.6 0.2
11/12:30pm 29.0 30.6 23.2 71 4.0 SSE 20 33 11 18 1009.2 - 0.2
11/12:00pm 28.5 29.5 22.8 71 3.9 SSE 22 32 12 17 1009.3 1009.1 0.2
11/11:30am 28.3 29.2 22.7 71 3.8 SSE 22 32 12 17 1009.7 1009.5 0.2
11/11:00am 27.9 28.4 22.6 73 3.6 SSE 24 39 13 21 1010.0 1009.8 0.2
11/10:30am 27.5 28.0 22.6 74 3.3 SSE 24 37 13 20 1010.0 1009.8 0.2
11/10:00am 26.8 27.0 22.8 79 2.7 SSE 26 39 14 21 1009.9 1009.7 0.0
11/09:30am 25.9 27.5 23.3 85 1.8 SSE 20 37 11 20 1010.0 1009.8 0.0
11/09:00am 24.2 26.0 23.3 95 0.6 S 19 30 10 16 1010.0 1009.8 11.0
11/08:30am 23.3 25.2 22.7 96 0.4 S 17 24 9 13 1010.0 1009.8 11.0
11/08:00am 22.9 23.6 22.3 96 0.4 S 22 32 12 17 1009.8 1009.6 10.8
11/07:30am 22.9 24.6 22.3 96 0.4 S 17 26 9 14 1009.5 1009.3 9.4
11/07:05am 22.3 21.4 21.5 95 0.5 SSE 28 46 15 25 1009.2 1009.0 9.4
11/07:00am 22.7 22.6 22.3 98 0.3 S 26 37 14 20 1009.3 1009.1 9.4
11/06:30am 23.1 23.3 22.7 98 0.3 S 26 43 14 23 1008.9 1008.7 9.0
11/06:00am 23.5 25.1 22.8 96 0.5 SSE 19 30 10 16 1008.6 1008.4 4.2
11/05:30am 23.8 24.8 22.2 91 1.1 S 20 32 11 17 1008.3 1008.1 3.2
11/05:00am 24.7 25.6 22.0 85 1.8 SSE 20 32 11 17 1007.9 1007.7 3.2
11/04:30am 24.2 25.0 22.4 90 1.2 SE 22 39 12 21 1007.7 1007.5 3.2
11/04:00am 24.7 25.9 22.2 86 1.7 SE 19 26 10 14 1007.6 1007.4 3.0
11/03:30am 25.6 26.4 21.7 79 2.6 SE 20 32 11 17 1007.6 1007.4 3.0
11/03:00am 25.3 26.1 22.5 84 1.9 SE 22 35 12 19 1007.6 1007.4 3.0
11/02:30am 25.0 26.4 22.6 86 1.6 SE 19 30 10 16 1007.6 1007.4 3.0
11/02:00am 24.8 26.4 22.9 89 1.3 SE 19 32 10 17 1007.9 1007.7 2.0
11/01:30am 25.8 27.1 22.4 81 2.3 SSE 19 33 10 18 1007.8 1007.6 0.0
11/01:00am 25.8 27.4 22.1 80 2.5 SE 17 28 9 15 1008.0 1007.8 0.0
11/12:30am 25.2 26.4 22.2 83 2.0 ESE 19 30 10 16 1008.4 1008.2 0.0
11/12:00am 26.5 27.5 21.7 75 3.2 SE 19 32 10 17 1008.6 1008.4 0.0
 
Date/Time
EST
Temp
°C
App
Temp
°C
Dew
Point
Rel
Hum
%
Delta-T
°C
Wind Press
QNH
hPa
Press
MSL
hPa
Rain
since 9 am
mm
Dir
 
Spd
km/h
Gust
km/h
Spd
kts
Gust
kts
10/11:30pm 26.5 27.6 21.9 76 3.1 SE 19 30 10 16 1009.3 1009.1 0.0
10/11:00pm 26.8 28.5 22.4 77 3.0 SE 17 30 9 16 1009.8 1009.6 0.0
10/10:30pm 26.7 27.7 22.2 76 3.0 SE 20 37 11 20 1009.9 1009.7 0.0
10/10:00pm 26.8 27.8 21.7 73 3.4 SE 19 32 10 17 1010.0 1009.8 0.0
10/09:30pm 26.8 27.8 21.7 73 3.4 SE 19 30 10 16 1009.9 1009.7 0.0
10/09:00pm 26.8 27.7 21.6 73 3.5 ESE 19 33 10 18 1009.7 1009.5 0.0
10/08:30pm 27.0 27.8 21.3 71 3.8 ESE 19 32 10 17 1009.6 1009.4 0.0
10/08:00pm 27.0 27.8 21.3 71 3.8 ESE 19 32 10 17 1009.5 1009.3 0.0
10/07:30pm 27.0 28.4 21.8 73 3.5 SE 17 28 9 15 1009.1 1008.9 0.0
10/07:00pm 27.3 28.6 20.8 67 4.3 ESE 15 24 8 13 1008.7 1008.5 0.0
10/06:30pm 27.5 27.3 19.3 61 5.3 SE 19 30 10 16 1008.5 1008.3 0.0
10/06:00pm 27.5 27.8 20.4 65 4.7 SE 19 33 10 18 1008.1 1007.9 0.0
10/05:30pm 27.1 27.1 21.6 72 3.7 SE 24 35 13 19 1007.8 1007.6 0.0
10/05:00pm 27.2 27.1 21.5 71 3.8 SE 24 39 13 21 1007.7 1007.5 0.0
10/04:30pm 27.9 28.5 21.0 66 4.6 SE 19 32 10 17 1007.7 1007.5 0.0
10/04:00pm 28.0 28.7 21.6 68 4.3 SE 20 32 11 17 1007.8 1007.6 0.0
10/03:30pm 28.5 28.7 21.3 65 4.8 SE 22 35 12 19 1007.8 1007.6 0.0
10/03:00pm 29.1 29.9 22.5 67 4.5 SSE 22 35 12 19 1007.9 1007.7 0.0
10/02:30pm 28.7 28.8 21.9 66 4.6 SSE 24 35 13 19 1008.1 1007.9 0.0
10/02:00pm 28.8 29.5 22.3 68 4.4 SSE 22 35 12 19 1008.3 1008.1 0.0
10/01:30pm 28.9 29.7 22.4 68 4.4 SSE 22 32 12 17 1008.7 1008.5 0.0
10/01:00pm 28.4 28.6 22.0 68 4.3 SSE 24 35 13 19 1009.0 1008.8 0.0
10/12:30pm 28.5 29.1 22.8 71 3.9 SSE 24 35 13 19 1009.3 1009.1 0.0
10/12:00pm 28.5 28.4 22.3 69 4.2 SSE 26 39 14 21 1009.6 1009.4 0.0
10/11:30am 27.8 27.2 22.0 70 3.9 SSE 28 41 15 22 1009.9 1009.7 0.0
10/11:00am 28.2 28.0 22.1 69 4.1 SSE 26 43 14 23 1010.1 1009.9 0.0
10/10:30am 27.6 27.4 22.1 72 3.7 SSE 26 39 14 21 1010.1 1009.9 0.0
10/10:00am 27.2 27.4 22.0 73 3.5 SSE 24 37 13 20 1010.0 1009.8 0.0
10/09:30am 27.2 26.9 21.8 72 3.6 SSE 26 39 14 21 1010.1 1009.9 0.0
10/09:00am 26.5 26.5 21.7 75 3.2 SSE 24 37 13 20 1010.2 1010.0 3.4
10/08:30am 26.3 26.2 21.5 75 3.2 SSE 24 41 13 22 1010.0 1009.8 3.4
10/08:00am 25.4 25.2 21.2 77 2.8 S 24 39 13 21 1009.7 1009.5 3.4
10/07:30am 25.8 26.1 21.6 77 2.8 S 22 32 12 17 1009.3 1009.1 3.4
10/07:00am 24.7 25.2 21.2 81 2.3 S 20 32 11 17 1009.3 1009.1 3.4
10/06:30am 24.2 25.3 21.2 83 2.0 S 17 24 9 13 1009.1 1008.9 3.4
10/06:00am 24.0 25.0 21.1 84 1.9 S 17 24 9 13 1008.8 1008.6 3.4
10/05:30am 24.6 25.2 21.0 80 2.4 SSE 19 37 10 20 1008.4 1008.2 3.4
10/05:00am 25.9 25.5 20.2 71 3.7 SE 22 39 12 21 1007.9 1007.7 3.4
10/04:30am 26.0 25.2 20.0 69 3.9 SE 24 41 13 22 1007.8 1007.6 3.4
10/04:00am 25.9 25.3 20.6 72 3.5 SSE 24 35 13 19 1007.6 1007.4 3.4
10/03:35am 26.1 24.5 20.1 69 3.9 SE 28 46 15 25 1007.7 1007.5 3.4
10/03:30am 26.1 25.3 20.8 72 3.5 SE 26 41 14 22 1007.8 1007.6 3.4
10/03:00am 26.0 25.8 21.3 75 3.1 SE 24 43 13 23 1007.8 1007.6 3.4
10/02:30am 25.8 25.4 21.6 77 2.8 SE 26 37 14 20 1008.1 1007.9 3.4
10/02:00am 26.6 26.2 21.0 71 3.7 ESE 24 43 13 23 1008.2 1008.0 3.0
10/01:35am 26.5 25.2 20.6 70 3.9 SE 28 46 15 25 1008.6 1008.4 3.0
10/01:30am 26.5 25.3 20.1 68 4.2 ESE 26 44 14 24 1008.6 1008.4 3.0
10/01:00am 26.6 26.6 21.0 71 3.7 SE 22 37 12 20 1009.0 1008.8 3.0
10/12:30am 26.5 26.1 20.9 71 3.7 SE 24 43 13 23 1009.3 1009.1 3.0
10/12:00am 26.6 26.3 20.4 69 4.1 SE 22 37 12 20 1009.6 1009.4 3.0
 
Date/Time
EST
Temp
°C
App
Temp
°C
Dew
Point
Rel
Hum
%
Delta-T
°C
Wind Press
QNH
hPa
Press
MSL
hPa
Rain
since 9 am
mm
Dir
 
Spd
km/h
Gust
km/h
Spd
kts
Gust
kts
09/11:30pm 26.7 27.5 21.8 74 3.3 SE 20 32 11 17 1010.0 1009.8 3.0
09/11:00pm 26.6 26.1 20.8 70 3.8 SE 24 37 13 20 1010.4 1010.2 3.0
09/10:30pm 26.8 26.2 20.6 69 4.1 SE 24 35 13 19 1010.6 1010.4 3.0
09/10:00pm 26.4 26.4 21.0 72 3.6 SE 22 35 12 19 1010.7 1010.5 3.0
09/09:30pm 26.4 25.8 21.3 73 3.4 SE 26 39 14 21 1010.7 1010.5 3.0
09/09:00pm 26.1 25.5 21.9 77 2.8 SE 28 43 15 23 1010.7 1010.5 2.8
09/08:30pm 24.4 27.4 23.4 94 0.7 SE 13 20 7 11 1010.7 1010.5 2.6
09/08:00pm 24.4 24.1 22.6 90 1.2 SE 28 46 15 25 1011.1 1010.8 1.4
09/07:55pm 24.4 23.6 21.7 85 1.8 SE 28 46 15 25 1010.8 1010.6 1.4
09/07:30pm 24.5 23.9 22.0 86 1.7 SE 28 41 15 22 1010.8 1010.6 1.4
09/07:04pm 25.5 24.8 21.8 80 2.5 SE 28 46 15 25 1010.4 1010.2 1.4
09/07:00pm 26.2 26.8 22.8 81 2.3 SE 24 44 13 24 1010.4 1010.2 1.4
09/06:30pm 26.4 26.6 21.4 74 3.3 SE 22 39 12 21 1009.9 1009.7 1.4
09/06:00pm 25.9 25.8 21.5 76 2.9 SE 24 37 13 20 1009.7 1009.5 1.4
09/05:30pm 24.7 25.1 23.2 91 1.0 S 26 39 14 21 1009.4 1009.2 1.0
09/05:00pm 27.8 28.6 21.7 69 4.1 SE 20 32 11 17 1009.0 1008.8 0.8
09/04:30pm 27.9 28.6 22.3 71 3.8 SE 22 35 12 19 1008.8 1008.6 0.8
09/04:00pm 28.5 29.3 22.5 70 4.1 SE 22 35 12 19 1008.7 1008.5 0.8
09/03:30pm 29.0 29.4 22.4 67 4.5 SE 24 37 13 20 1008.6 1008.4 0.8
09/03:00pm 28.7 28.4 21.9 66 4.6 SSE 26 41 14 22 1009.0 1008.8 0.8
09/02:30pm 26.7 27.4 23.0 80 2.5 SSE 24 41 13 22 1009.1 1008.9 0.8
09/02:00pm 24.9 26.6 23.4 91 1.0 SSE 20 30 11 16 1009.5 1009.3 0.8
09/01:30pm 26.7 27.8 23.0 80 2.5 SSE 22 35 12 19 1009.8 1009.6 0.0
09/01:00pm 26.8 27.3 22.7 78 2.8 SE 24 37 13 20 1010.0 1009.8 0.0
09/12:30pm 26.8 27.8 22.8 79 2.7 SSE 22 41 12 22 1010.3 1010.1 0.0
09/12:00pm 27.9 28.0 22.6 73 3.6 SSE 26 41 14 22 1010.5 1010.3 0.0
09/11:30am 28.6 28.7 22.6 70 4.1 SSE 26 35 14 19 1010.8 1010.6 0.0
09/11:00am 28.2 27.7 22.1 69 4.1 SSE 28 41 15 22 1011.0 1010.7 0.0
09/10:30am 28.4 27.9 22.2 69 4.2 SSE 28 43 15 23 1011.0 1010.7 0.0
09/10:00am 27.5 27.0 22.2 73 3.6 SSE 28 43 15 23 1011.2 1010.9 0.0
09/09:30am 27.1 27.5 22.4 75 3.2 SSE 24 39 13 21 1011.3 1011.0 0.0
09/09:00am 26.6 27.6 22.1 76 3.0 SSE 20 30 11 16 1011.4 1011.1 5.0
09/08:30am 27.4 27.0 20.9 67 4.3 SSE 24 33 13 18 1011.3 1011.0 5.0
09/08:00am 27.3 26.5 20.1 64 4.7 SE 24 37 13 20 1011.0 1010.7 5.0
09/07:30am 26.8 25.7 20.2 67 4.3 SE 26 41 14 22 1010.8 1010.6 5.0
09/07:00am 26.6 25.7 20.7 70 3.9 SSE 26 41 14 22 1010.6 1010.4 5.0
09/06:33am 26.4 25.0 20.5 70 3.9 SSE 28 46 15 25 1010.3 1010.1 5.0
09/06:30am 26.3 25.0 20.7 71 3.7 SSE 28 39 15 21 1010.4 1010.2 5.0
09/06:00am 26.2 25.5 21.1 73 3.4 SSE 26 39 14 21 1010.0 1009.8 5.0
09/05:30am 26.4 25.9 20.8 71 3.7 SE 24 41 13 22 1009.5 1009.3 5.0
09/05:00am 26.4 25.7 20.3 69 4.0 SE 24 37 13 20 1009.1 1008.9 5.0
09/04:30am 26.7 26.1 20.5 69 4.1 SE 24 43 13 23 1008.9 1008.7 5.0
09/04:00am 26.5 25.7 20.1 68 4.2 SE 24 39 13 21 1008.8 1008.6 5.0
09/03:30am 26.5 26.5 20.9 71 3.7 SE 22 35 12 19 1008.9 1008.7 5.0
09/03:00am 26.5 25.5 20.4 69 4.0 SSE 26 39 14 21 1008.7 1008.5 5.0
09/02:30am 26.5 25.5 20.4 69 4.0 SE 26 41 14 22 1009.1 1008.9 5.0
09/02:00am 26.5 25.4 20.2 68 4.1 SE 26 41 14 22 1009.1 1008.9 5.0
09/01:30am 26.8 25.6 20.1 66 4.4 SE 26 43 14 23 1009.5 1009.3 5.0
09/01:00am 26.7 25.7 20.5 69 4.1 SE 26 41 14 22 1009.8 1009.6 5.0
09/12:30am 26.9 26.2 20.2 66 4.4 SE 24 39 13 21 1010.3 1010.1 5.0
09/12:00am 27.0 27.2 21.3 71 3.8 SE 22 35 12 19 1011.0 1010.7 5.0
 
Date/Time
EST
Temp
°C
App
Temp
°C
Dew
Point
Rel
Hum
%
Delta-T
°C
Wind Press
QNH
hPa
Press
MSL
hPa
Rain
since 9 am
mm
Dir
 
Spd
km/h
Gust
km/h
Spd
kts
Gust
kts
08/11:30pm 27.2 27.0 21.3 70 3.9 ESE 24 39 13 21 1011.0 1010.7 5.0
08/11:00pm 27.2 27.6 22.5 75 3.2 ESE 24 41 13 22 1011.2 1010.9 5.0
08/10:30pm 27.2 28.3 23.6 81 2.5 SE 24 39 13 21 1011.0 1010.7 5.0
08/10:00pm 27.2 28.3 23.6 81 2.5 SE 24 35 13 19 1011.0 1010.7 5.0
08/09:30pm 27.1 27.6 23.3 80 2.6 SE 26 37 14 20 1010.7 1010.5 5.0
08/09:00pm 27.1 28.0 23.3 80 2.6 SE 24 44 13 24 1010.5 1010.3 5.0
08/08:30pm 27.0 28.0 23.5 81 2.4 SE 24 37 13 20 1010.6 1010.4 5.0
08/08:00pm 27.0 28.1 23.7 82 2.3 SE 24 37 13 20 1010.4 1010.2 5.0
08/07:30pm 26.9 27.9 23.5 81 2.3 SE 24 41 13 22 1010.1 1009.9 5.0
08/07:00pm 27.2 28.3 23.6 81 2.5 SE 24 43 13 23 1009.7 1009.5 5.0
08/06:30pm 27.1 27.6 23.9 82 2.2 SE 28 43 15 23 1009.4 1009.2 5.0
08/06:00pm 27.0 28.1 23.7 82 2.3 SE 24 39 13 21 1009.5 1009.3 5.0
08/05:30pm 25.7 25.7 23.7 89 1.4 SE 30 50 16 27 1009.3 1009.1 5.0
08/05:24pm 26.0 26.2 23.4 85 1.8 SE 28 50 15 27 1009.2 1009.0 5.0
08/05:00pm 27.0 28.0 23.5 81 2.4 SE 24 39 13 21 1008.9 1008.7 5.0

Other Formats:

Comma delimited format used in spreadsheet applications
http://www.bom.gov.au/fwo/IDQ60801/IDQ60801.94367.axf

JavaScript Object Notation format (JSON) in row-major order
http://www.bom.gov.au/fwo/IDQ60801/IDQ60801.94367.json